createdAt,value
2017-11-15T00:01:59.286Z,79.80
2017-11-15T00:04:27.584Z,80.00
2017-11-15T00:06:55.141Z,79.90
2017-11-15T00:09:22.667Z,80.20
2017-11-15T00:11:50.252Z,80.40
2017-11-15T00:14:17.763Z,80.40
2017-11-15T00:16:46.110Z,80.10
2017-11-15T00:19:13.622Z,80.10
2017-11-15T00:21:41.909Z,80.10
2017-11-15T00:24:09.493Z,80.00
2017-11-15T00:26:37.052Z,80.30
2017-11-15T00:29:04.556Z,80.30
2017-11-15T00:31:32.885Z,79.90
2017-11-15T00:34:00.409Z,79.90
2017-11-15T00:36:28.678Z,80.20
2017-11-15T00:38:56.227Z,80.20
2017-11-15T00:41:23.745Z,80.10
2017-11-15T00:43:51.315Z,80.00
2017-11-15T00:46:18.823Z,80.20
2017-11-15T00:48:47.128Z,80.40
2017-11-15T00:51:14.662Z,80.40
2017-11-15T00:53:42.942Z,80.20
2017-11-15T00:56:10.488Z,80.20
2017-11-15T00:58:38.757Z,80.90
2017-11-15T01:01:07.153Z,81.60
2017-11-15T01:03:34.735Z,81.60
2017-11-15T01:06:02.240Z,82.10
2017-11-15T01:08:30.543Z,82.00
2017-11-15T01:10:58.091Z,82.00
2017-11-15T01:13:26.364Z,81.70
2017-11-15T01:15:53.894Z,81.70
2017-11-15T01:18:21.403Z,81.40
2017-11-15T01:20:48.989Z,81.60
2017-11-15T01:23:16.516Z,81.90
2017-11-15T01:25:44.036Z,82.50
2017-11-15T01:28:11.561Z,82.40
2017-11-15T01:30:39.081Z,82.20
2017-11-15T01:33:06.593Z,82.30
2017-11-15T01:35:34.126Z,82.20
2017-11-15T01:38:01.665Z,82.30
2017-11-15T01:40:29.184Z,82.30
2017-11-15T01:42:56.741Z,82.40
2017-11-15T01:45:25.022Z,81.60
2017-11-15T01:47:53.323Z,81.20
2017-11-15T01:50:20.830Z,81.20
2017-11-15T01:52:48.335Z,80.90
2017-11-15T01:55:15.865Z,81.00
2017-11-15T01:57:43.362Z,81.60
2017-11-15T02:00:10.900Z,81.90
2017-11-15T02:02:38.399Z,81.70
2017-11-15T02:05:05.922Z,81.10
2017-11-15T02:07:34.198Z,80.60
2017-11-15T02:10:01.729Z,80.60
2017-11-15T02:12:30.029Z,81.50
2017-11-15T02:14:57.529Z,81.40
2017-11-15T02:17:25.058Z,81.20
2017-11-15T02:19:52.573Z,80.60
2017-11-15T02:22:20.112Z,80.80
2017-11-15T02:24:47.660Z,81.20
2017-11-15T02:27:15.162Z,81.50
2017-11-15T02:29:43.452Z,82.00
2017-11-15T02:32:11.014Z,82.00
2017-11-15T02:34:38.537Z,82.30
2017-11-15T02:37:06.060Z,82.70
2017-11-15T02:39:33.585Z,82.70
2017-11-15T02:42:01.169Z,83.10
2017-11-15T02:44:28.690Z,82.50
2017-11-15T02:46:56.995Z,82.90
2017-11-15T02:49:24.519Z,82.80
2017-11-15T02:51:52.818Z,82.60
2017-11-15T02:54:20.377Z,82.50
2017-11-15T02:56:47.937Z,82.50
2017-11-15T02:59:15.485Z,83.10
2017-11-15T03:01:43.015Z,83.90
2017-11-15T03:04:10.607Z,84.50
2017-11-15T03:06:38.143Z,85.10
2017-11-15T03:09:06.451Z,85.80
2017-11-15T03:11:33.986Z,85.70
2017-11-15T03:14:02.282Z,85.80
2017-11-15T03:16:29.842Z,85.70
2017-11-15T03:18:57.369Z,85.70
2017-11-15T03:21:25.647Z,85.60
2017-11-15T03:23:53.951Z,85.70
2017-11-15T03:26:21.453Z,85.70
2017-11-15T03:28:48.986Z,85.60
2017-11-15T03:31:16.480Z,86.00
2017-11-15T03:33:44.009Z,86.40
2017-11-15T03:36:11.523Z,86.30
2017-11-15T03:38:39.048Z,86.60
2017-11-15T03:41:06.545Z,86.60
2017-11-15T03:43:34.079Z,86.30
2017-11-15T03:46:02.353Z,86.30
2017-11-15T03:48:30.649Z,85.80
2017-11-15T03:50:58.169Z,85.80
2017-11-15T03:53:25.769Z,85.60
2017-11-15T03:55:53.293Z,85.80
2017-11-15T03:58:20.818Z,86.10
2017-11-15T04:00:48.346Z,86.50
2017-11-15T04:03:15.915Z,85.70
2017-11-15T04:05:43.452Z,85.90
2017-11-15T04:08:10.949Z,85.60
2017-11-15T04:10:38.446Z,85.60
2017-11-15T04:13:05.983Z,85.40
2017-11-15T04:15:33.494Z,85.20
2017-11-15T04:18:01.025Z,85.10
2017-11-15T04:20:29.339Z,85.80
2017-11-15T04:22:56.897Z,85.70
2017-11-15T04:25:24.430Z,85.60
2017-11-15T04:27:51.943Z,85.70
2017-11-15T04:30:19.504Z,85.70
2017-11-15T04:32:47.119Z,86.40
2017-11-15T04:35:14.630Z,85.60
2017-11-15T04:37:42.155Z,85.60
2017-11-15T04:40:09.722Z,85.60
2017-11-15T04:42:37.254Z,85.80
2017-11-15T04:45:04.760Z,85.60
2017-11-15T04:47:32.290Z,85.90
2017-11-15T04:49:59.816Z,86.30
2017-11-15T04:52:27.385Z,86.30
2017-11-15T04:54:54.893Z,86.30
2017-11-15T04:57:22.407Z,87.00
2017-11-15T04:59:49.921Z,86.20
2017-11-15T05:02:18.182Z,86.60
2017-11-15T05:04:45.778Z,86.20
2017-11-15T05:07:13.284Z,86.20
2017-11-15T05:09:40.818Z,86.40
2017-11-15T05:12:08.328Z,86.60
2017-11-15T05:14:36.593Z,87.10
2017-11-15T05:17:04.124Z,87.00
2017-11-15T05:19:31.634Z,87.30
2017-11-15T05:22:00.025Z,87.50
2017-11-15T05:24:27.586Z,87.40
2017-11-15T05:26:55.090Z,86.80
2017-11-15T05:29:22.617Z,86.70
2017-11-15T05:31:50.144Z,86.80
2017-11-15T05:34:18.449Z,85.80
2017-11-15T05:36:45.981Z,85.80
2017-11-15T05:39:14.254Z,86.20
2017-11-15T05:41:41.806Z,86.00
2017-11-15T05:44:10.074Z,85.30
2017-11-15T05:46:38.370Z,85.20
2017-11-15T05:49:05.915Z,85.20
2017-11-15T05:51:33.449Z,85.40
2017-11-15T05:54:00.959Z,86.10
2017-11-15T05:56:28.518Z,86.40
2017-11-15T05:58:56.045Z,86.60
2017-11-15T06:01:24.304Z,87.20
2017-11-15T06:03:51.813Z,87.00
2017-11-15T06:06:19.342Z,86.80
2017-11-15T06:08:46.913Z,86.60
2017-11-15T06:11:14.516Z,86.50
2017-11-15T06:13:42.733Z,85.90
2017-11-15T06:16:11.160Z,85.20
2017-11-15T06:18:38.659Z,85.20
2017-11-15T06:21:06.193Z,85.40
2017-11-15T06:23:33.769Z,85.50
2017-11-15T06:26:01.951Z,86.20
2017-11-15T06:28:30.265Z,86.40
2017-11-15T06:30:57.806Z,86.40
2017-11-15T06:33:26.113Z,86.70
2017-11-15T06:35:53.632Z,86.70
2017-11-15T06:38:22.013Z,86.30
2017-11-15T06:40:49.522Z,86.30
2017-11-15T06:43:17.039Z,86.60
2017-11-15T06:45:44.595Z,87.20
2017-11-15T06:48:12.102Z,87.70
2017-11-15T06:50:39.640Z,87.40
2017-11-15T06:53:07.141Z,87.20
2017-11-15T06:55:35.454Z,86.80
2017-11-15T06:58:02.949Z,86.70
2017-11-15T07:00:30.502Z,86.40
2017-11-15T07:02:58.045Z,86.00
2017-11-15T07:05:25.555Z,86.20
2017-11-15T07:07:53.869Z,86.30
2017-11-15T07:10:21.391Z,86.30
2017-11-15T07:12:49.715Z,86.50
2017-11-15T07:15:17.452Z,86.50
2017-11-15T07:17:45.109Z,86.40
2017-11-15T07:20:12.627Z,86.20
2017-11-15T07:22:40.222Z,86.70
2017-11-15T07:25:07.760Z,87.20
2017-11-15T07:27:36.030Z,87.10
2017-11-15T07:30:04.314Z,87.00
2017-11-15T07:32:31.845Z,86.90
2017-11-15T07:34:59.352Z,86.90
2017-11-15T07:37:26.886Z,86.50
2017-11-15T07:39:55.200Z,86.10
2017-11-15T07:42:22.741Z,86.10
2017-11-15T07:44:50.249Z,86.10
2017-11-15T07:47:17.779Z,86.40
2017-11-15T07:49:45.306Z,86.40
2017-11-15T07:52:12.797Z,86.60
2017-11-15T07:54:40.366Z,86.90
2017-11-15T07:57:07.886Z,86.80
2017-11-15T07:59:35.411Z,86.60
2017-11-15T08:02:03.708Z,86.10
2017-11-15T08:04:31.233Z,86.00
2017-11-15T08:06:58.750Z,86.00
2017-11-15T08:09:26.295Z,86.20
2017-11-15T08:11:53.855Z,86.70
2017-11-15T08:14:21.379Z,86.90
2017-11-15T08:16:49.672Z,86.00
2017-11-15T08:19:17.179Z,86.00
2017-11-15T08:21:44.805Z,85.50
2017-11-15T08:24:12.358Z,85.10
2017-11-15T08:26:39.865Z,85.10
2017-11-15T08:29:07.391Z,85.40
2017-11-15T08:31:34.942Z,84.90
2017-11-15T08:34:02.497Z,84.90
2017-11-15T08:36:30.651Z,85.00
2017-11-15T08:38:58.177Z,85.50
2017-11-15T08:41:25.787Z,85.00
2017-11-15T08:43:53.321Z,84.50
2017-11-15T08:46:21.593Z,85.00
2017-11-15T08:48:49.898Z,85.00
2017-11-15T08:51:17.426Z,85.00
2017-11-15T08:53:45.833Z,84.20
2017-11-15T08:56:13.378Z,84.20
2017-11-15T08:58:40.916Z,84.20
2017-11-15T09:01:09.217Z,84.00
2017-11-15T09:03:36.717Z,84.00
2017-11-15T09:06:04.346Z,84.30
2017-11-15T09:08:31.992Z,84.70
2017-11-15T09:10:59.503Z,84.70
2017-11-15T09:13:27.019Z,84.10
2017-11-15T09:15:54.545Z,84.20
2017-11-15T09:18:22.866Z,83.60
2017-11-15T09:20:50.506Z,83.60
2017-11-15T09:23:18.016Z,84.10
2017-11-15T09:25:45.553Z,84.00
2017-11-15T09:28:13.066Z,83.70
2017-11-15T09:30:40.591Z,83.50
2017-11-15T09:33:08.193Z,83.90
2017-11-15T09:35:35.697Z,82.30
2017-11-15T09:38:03.216Z,80.20
2017-11-15T09:40:30.749Z,80.10
2017-11-15T09:42:59.040Z,80.60
2017-11-15T09:45:26.572Z,80.60
2017-11-15T09:47:54.845Z,79.70
2017-11-15T09:50:25.690Z,79.20
2017-11-15T09:52:53.201Z,79.10
2017-11-15T09:55:20.821Z,78.40
2017-11-15T09:57:48.342Z,78.10
2017-11-15T10:00:15.841Z,77.10
2017-11-15T10:02:43.405Z,75.50
2017-11-15T10:05:10.913Z,73.80
2017-11-15T10:07:38.411Z,72.90
2017-11-15T10:10:05.978Z,73.10
2017-11-15T10:12:33.538Z,72.90
2017-11-15T10:15:01.102Z,72.50
2017-11-15T10:17:28.654Z,70.50
2017-11-15T10:19:56.159Z,69.30
2017-11-15T10:22:23.672Z,68.70
2017-11-15T10:24:51.198Z,68.40
2017-11-15T10:27:19.535Z,66.80
2017-11-15T10:29:47.039Z,66.60
2017-11-15T10:32:15.361Z,65.70
2017-11-15T10:34:42.858Z,65.60
2017-11-15T10:37:11.166Z,65.70
2017-11-15T10:39:38.719Z,65.50
2017-11-15T10:42:06.234Z,65.10
2017-11-15T10:44:33.761Z,64.10
2017-11-15T10:47:01.269Z,64.70
2017-11-15T10:49:29.573Z,64.20
2017-11-15T10:51:57.124Z,64.20
2017-11-15T10:54:24.629Z,62.60
2017-11-15T10:56:52.171Z,62.90
2017-11-15T10:59:19.698Z,62.80
2017-11-15T11:01:47.266Z,62.20
2017-11-15T11:04:14.778Z,62.10
2017-11-15T11:06:42.293Z,61.50
2017-11-15T11:09:09.846Z,60.70
2017-11-15T11:11:37.365Z,60.70
2017-11-15T11:14:05.671Z,60.10
2017-11-15T11:16:33.183Z,60.10
2017-11-15T11:19:00.781Z,59.10
2017-11-15T11:21:29.208Z,59.10
2017-11-15T11:23:56.732Z,60.10
2017-11-15T11:26:24.290Z,59.10
2017-11-15T11:28:51.805Z,59.20
2017-11-15T11:31:20.124Z,59.00
2017-11-15T11:33:47.722Z,58.20
2017-11-15T11:36:15.232Z,58.10
2017-11-15T11:38:42.773Z,56.30
2017-11-15T11:41:11.051Z,54.20
2017-11-15T11:43:38.615Z,54.20
2017-11-15T11:46:06.144Z,54.20
2017-11-15T11:48:34.430Z,53.80
2017-11-15T11:51:02.828Z,53.60
2017-11-15T11:53:30.383Z,53.60
2017-11-15T11:55:57.919Z,52.30
2017-11-15T11:58:26.226Z,51.50
2017-11-15T12:00:53.758Z,51.50
2017-11-15T12:03:21.314Z,50.30
2017-11-15T12:05:49.582Z,48.10
2017-11-15T12:08:17.878Z,48.20
2017-11-15T12:10:46.170Z,46.40
2017-11-15T12:13:13.686Z,46.40
2017-11-15T12:15:41.223Z,45.40
2017-11-15T12:18:08.739Z,44.30
2017-11-15T12:20:36.294Z,42.80
2017-11-15T12:23:03.804Z,42.20
2017-11-15T12:25:31.313Z,41.30
2017-11-15T12:27:58.845Z,39.70
2017-11-15T12:30:27.160Z,38.80
2017-11-15T12:32:54.716Z,38.80
2017-11-15T12:35:22.230Z,38.10
2017-11-15T12:37:49.735Z,37.70
2017-11-15T12:40:17.275Z,38.40
2017-11-15T12:42:44.803Z,36.90
2017-11-15T12:45:13.099Z,35.90
2017-11-15T12:47:41.365Z,35.60
2017-11-15T12:50:09.787Z,35.00
2017-11-15T12:52:37.306Z,35.00
2017-11-15T12:55:05.596Z,33.80
2017-11-15T12:57:33.171Z,33.60
2017-11-15T13:00:00.722Z,33.20
2017-11-15T13:02:28.252Z,32.60
2017-11-15T13:04:56.557Z,31.80
2017-11-15T13:07:24.077Z,31.80
2017-11-15T13:09:52.369Z,31.20
2017-11-15T13:12:19.873Z,30.50
2017-11-15T13:14:47.407Z,30.70
2017-11-15T13:17:14.916Z,30.30
2017-11-15T13:19:42.450Z,30.60
2017-11-15T13:22:09.950Z,30.70
2017-11-15T13:24:38.316Z,29.90
2017-11-15T13:27:05.876Z,29.80
2017-11-15T13:29:33.466Z,29.70
2017-11-15T13:32:01.040Z,29.50
2017-11-15T13:34:28.539Z,29.10
2017-11-15T13:36:56.072Z,29.40
2017-11-15T13:39:23.628Z,28.90
2017-11-15T13:41:51.173Z,29.10
2017-11-15T13:44:18.717Z,28.70
2017-11-15T13:46:46.223Z,28.80
2017-11-15T13:49:13.777Z,29.20
2017-11-15T13:51:41.339Z,29.10
2017-11-15T13:54:08.849Z,29.10
2017-11-15T13:56:36.409Z,29.40
2017-11-15T13:59:03.935Z,29.90
2017-11-15T14:01:32.243Z,30.60
2017-11-15T14:03:59.754Z,30.60
2017-11-15T14:06:28.794Z,33.20
2017-11-15T14:08:56.336Z,33.20
2017-11-15T14:11:24.603Z,35.80
2017-11-15T14:13:52.165Z,35.10
2017-11-15T14:16:20.444Z,37.20
2017-11-15T14:18:48.767Z,38.10
2017-11-15T14:21:16.308Z,38.00
2017-11-15T14:23:43.816Z,39.10
2017-11-15T14:26:12.142Z,41.00
2017-11-15T14:28:39.675Z,41.00
2017-11-15T14:31:07.942Z,42.10
2017-11-15T14:33:36.241Z,42.80
2017-11-15T14:36:04.018Z,42.70
2017-11-15T14:38:31.654Z,43.20
2017-11-15T14:40:59.165Z,43.80
2017-11-15T14:43:26.717Z,44.50
2017-11-15T14:45:54.222Z,44.90
2017-11-15T14:48:21.730Z,46.00
2017-11-15T14:50:49.266Z,46.40
2017-11-15T14:53:16.767Z,46.60
2017-11-15T14:55:45.066Z,48.50
2017-11-15T14:58:13.372Z,49.20
2017-11-15T15:00:40.933Z,49.20
2017-11-15T15:03:08.458Z,49.80
2017-11-15T15:05:36.723Z,50.40
2017-11-15T15:08:05.051Z,51.00
2017-11-15T15:10:32.560Z,51.00
2017-11-15T15:13:00.823Z,52.10
2017-11-15T15:15:29.143Z,52.30
2017-11-15T15:17:56.697Z,52.20
2017-11-15T15:20:24.214Z,52.60
2017-11-15T15:22:52.491Z,53.60
2017-11-15T15:25:20.806Z,54.00
2017-11-15T15:27:48.321Z,53.80
2017-11-15T15:30:16.645Z,55.70
2017-11-15T15:32:44.190Z,55.00
2017-11-15T15:35:11.715Z,55.20
2017-11-15T15:37:39.287Z,55.60
2017-11-15T15:40:07.582Z,57.30
2017-11-15T15:42:35.100Z,57.30
2017-11-15T15:45:03.406Z,58.00
2017-11-15T15:47:30.942Z,58.00
2017-11-15T15:49:59.241Z,58.50
2017-11-15T15:52:26.812Z,58.50
2017-11-15T15:54:54.346Z,59.00
2017-11-15T15:57:22.659Z,59.70
2017-11-15T15:59:50.165Z,59.70
2017-11-15T16:02:18.466Z,60.50
2017-11-15T16:04:46.038Z,60.50
2017-11-15T16:07:13.587Z,60.90
2017-11-15T16:09:41.107Z,61.20
2017-11-15T16:12:09.523Z,63.00
2017-11-15T16:14:37.095Z,62.00
2017-11-15T16:17:04.653Z,62.40
2017-11-15T16:19:32.202Z,62.80
2017-11-15T16:21:59.765Z,63.20
2017-11-15T16:24:27.298Z,63.50
2017-11-15T16:26:55.582Z,64.20
2017-11-15T16:29:23.916Z,64.70
2017-11-15T16:31:51.419Z,64.70
2017-11-15T16:34:18.938Z,64.90
2017-11-15T16:36:46.471Z,65.10
2017-11-15T16:39:14.606Z,65.60
2017-11-15T16:41:42.181Z,66.60
2017-11-15T16:44:09.726Z,67.00
2017-11-15T16:46:37.242Z,67.30
2017-11-15T16:49:04.805Z,67.20
2017-11-15T16:51:32.313Z,66.70
2017-11-15T16:53:59.819Z,67.40
2017-11-15T16:56:27.364Z,67.40
2017-11-15T16:58:54.992Z,67.70
2017-11-15T17:01:22.538Z,67.70
2017-11-15T17:03:50.070Z,68.20
2017-11-15T17:06:18.409Z,68.70
2017-11-15T17:08:45.933Z,68.70
2017-11-15T17:11:13.449Z,69.00
2017-11-15T17:13:40.989Z,68.80
2017-11-15T17:16:08.498Z,68.50
2017-11-15T17:18:36.086Z,68.60
2017-11-15T17:21:03.655Z,68.60
2017-11-15T17:23:31.214Z,68.80
2017-11-15T17:25:58.851Z,69.00
2017-11-15T17:28:26.366Z,69.30
2017-11-15T17:30:53.909Z,69.00
2017-11-15T17:33:21.448Z,69.00
2017-11-15T17:35:49.011Z,69.10
2017-11-15T17:38:16.546Z,69.10
2017-11-15T17:40:44.052Z,69.20
2017-11-15T17:43:11.590Z,69.70
2017-11-15T17:45:39.114Z,70.50
2017-11-15T17:48:06.629Z,70.80
2017-11-15T17:50:34.166Z,70.60
2017-11-15T17:53:01.681Z,71.30
2017-11-15T17:55:29.220Z,70.50
2017-11-15T17:57:57.529Z,70.70
2017-11-15T18:00:25.086Z,70.70
2017-11-15T18:02:52.624Z,70.60
2017-11-15T18:05:20.139Z,70.50
2017-11-15T18:07:47.706Z,70.50
2017-11-15T18:10:15.231Z,70.70
2017-11-15T18:12:42.791Z,70.90
2017-11-15T18:15:10.388Z,70.80
2017-11-15T18:17:38.662Z,70.70
2017-11-15T18:20:06.991Z,70.90
2017-11-15T18:22:34.505Z,71.60
2017-11-15T18:25:02.816Z,71.30
2017-11-15T18:27:30.377Z,71.30
2017-11-15T18:29:57.988Z,71.20
2017-11-15T18:32:26.385Z,71.10
2017-11-15T18:34:54.383Z,71.10
2017-11-15T18:37:22.255Z,71.20
2017-11-15T18:39:50.225Z,71.80
2017-11-15T18:42:18.904Z,70.90
2017-11-15T18:44:46.870Z,71.50
2017-11-15T18:47:14.940Z,71.20
2017-11-15T18:49:42.908Z,71.10
2017-11-15T18:52:10.876Z,71.80
2017-11-15T18:54:38.852Z,71.80
2017-11-15T18:57:06.814Z,72.00
2017-11-15T18:59:34.883Z,71.90
2017-11-15T19:02:02.749Z,72.20
2017-11-15T19:04:30.716Z,73.20
2017-11-15T19:06:58.789Z,71.80
2017-11-15T19:09:26.964Z,72.20
2017-11-15T19:11:55.032Z,72.50
2017-11-15T19:14:23.001Z,72.90
2017-11-15T19:16:50.968Z,72.70
2017-11-15T19:19:18.940Z,72.90
2017-11-15T19:21:46.902Z,72.60
2017-11-15T19:24:14.873Z,72.60
2017-11-15T19:26:42.740Z,72.40
2017-11-15T19:29:10.713Z,72.50
2017-11-15T19:31:38.776Z,72.20
2017-11-15T19:34:06.845Z,71.90
2017-11-15T19:36:34.812Z,71.80
2017-11-15T19:39:03.512Z,71.60
2017-11-15T19:41:32.397Z,72.40
2017-11-15T19:44:00.356Z,72.20
2017-11-15T19:46:28.324Z,72.40
2017-11-15T19:48:56.298Z,72.20
2017-11-15T19:51:24.259Z,71.90
2017-11-15T19:53:52.133Z,71.80
2017-11-15T19:56:21.092Z,71.80
2017-11-15T19:58:49.912Z,71.30
2017-11-15T20:01:17.876Z,71.20
2017-11-15T20:03:45.843Z,71.20
2017-11-15T20:06:13.810Z,71.20
2017-11-15T20:08:41.882Z,71.10
2017-11-15T20:11:10.669Z,70.60
2017-11-15T20:13:38.639Z,70.60
2017-11-15T20:16:06.605Z,71.00
2017-11-15T20:18:34.785Z,71.40
2017-11-15T20:21:02.851Z,71.90
2017-11-15T20:23:31.635Z,73.00
2017-11-15T20:25:59.503Z,72.00
2017-11-15T20:28:27.478Z,72.60
2017-11-15T20:30:55.339Z,72.40
2017-11-15T20:33:23.207Z,72.10
2017-11-15T20:35:50.813Z,72.70
2017-11-15T20:38:19.121Z,72.30
2017-11-15T20:40:46.688Z,72.20
2017-11-15T20:43:14.206Z,72.00
2017-11-15T20:45:42.503Z,72.60
2017-11-15T20:48:10.807Z,71.70
2017-11-15T20:50:38.327Z,71.70
2017-11-15T20:53:06.641Z,71.30
2017-11-15T20:55:34.159Z,71.20
2017-11-15T20:58:02.509Z,71.00
2017-11-15T21:00:30.065Z,71.00
2017-11-15T21:02:57.612Z,70.90
2017-11-15T21:05:25.173Z,70.70
2017-11-15T21:07:52.805Z,70.90
2017-11-15T21:10:20.347Z,70.80
2017-11-15T21:12:47.906Z,70.70
2017-11-15T21:15:15.465Z,70.50
2017-11-15T21:17:43.045Z,70.40
2017-11-15T21:20:10.604Z,70.40
2017-11-15T21:22:38.153Z,70.50
2017-11-15T21:25:05.772Z,70.70
2017-11-15T21:27:33.315Z,70.70
2017-11-15T21:30:00.855Z,70.40
2017-11-15T21:32:28.414Z,70.30
2017-11-15T21:34:55.927Z,70.40
2017-11-15T21:37:23.454Z,70.50
2017-11-15T21:39:51.778Z,70.80
2017-11-15T21:42:19.326Z,70.80
2017-11-15T21:44:46.970Z,71.10
2017-11-15T21:47:14.545Z,71.50
2017-11-15T21:49:42.084Z,71.90
2017-11-15T21:52:10.447Z,72.90
2017-11-15T21:54:38.769Z,72.00
2017-11-15T21:57:06.323Z,72.00
2017-11-15T21:59:33.856Z,71.80
2017-11-15T22:02:02.174Z,71.60
2017-11-15T22:04:29.716Z,71.60
2017-11-15T22:06:57.273Z,71.50
2017-11-15T22:09:24.822Z,71.20
2017-11-15T22:11:52.368Z,71.20
2017-11-15T22:14:20.674Z,71.20
2017-11-15T22:16:48.182Z,71.10
2017-11-15T22:19:15.809Z,72.00
2017-11-15T22:21:43.428Z,73.60
2017-11-15T22:24:10.954Z,73.20
2017-11-15T22:26:38.682Z,73.20
2017-11-15T22:29:06.357Z,72.80
2017-11-15T22:31:33.963Z,72.50
2017-11-15T22:34:02.241Z,72.10
2017-11-15T22:36:30.523Z,71.90
2017-11-15T22:38:58.106Z,71.90
2017-11-15T22:41:25.645Z,71.70
2017-11-15T22:43:53.222Z,71.60
2017-11-15T22:46:20.750Z,71.50
2017-11-15T22:48:49.178Z,71.60
2017-11-15T22:51:17.581Z,71.50
2017-11-15T22:53:45.182Z,71.40
2017-11-15T22:56:12.737Z,71.40
2017-11-15T22:58:40.317Z,71.40
2017-11-15T23:01:08.028Z,71.50
2017-11-15T23:03:36.358Z,72.60
2017-11-15T23:06:04.238Z,72.60
2017-11-15T23:08:31.871Z,72.20
2017-11-15T23:10:59.377Z,72.40
2017-11-15T23:13:26.902Z,72.40
2017-11-15T23:15:54.434Z,72.50
2017-11-15T23:18:22.718Z,72.50
2017-11-15T23:20:50.258Z,72.50
2017-11-15T23:23:17.838Z,72.50
2017-11-15T23:25:45.357Z,72.40
2017-11-15T23:28:13.660Z,72.30
2017-11-15T23:30:41.174Z,72.30
2017-11-15T23:33:08.712Z,72.10
2017-11-15T23:35:36.265Z,72.10
2017-11-15T23:38:03.910Z,72.30
2017-11-15T23:40:31.439Z,72.30
2017-11-15T23:42:58.974Z,72.40
2017-11-15T23:45:26.480Z,72.60
2017-11-15T23:47:54.011Z,72.40
2017-11-15T23:50:22.401Z,72.70
2017-11-15T23:52:49.917Z,72.60
2017-11-15T23:55:18.243Z,72.70
2017-11-15T23:57:45.771Z,72.70
